Iliamna, AK (99606)

6:17 PM AKDT on October 20, 2014 (GMT -0800)
Iliamna | Change Station
CLOSE
Current Station
Airport
Location: Iliamna,
Elevation: 161 ft
Nearby Weather Stations

Elev 161 ft 59.75 °N, 154.91 °W | Updated 24 minutes ago

Overcast
Overcast
29 °F
Feels Like 25 °F
N
4
Wind Variable Wind from SSW

Today
High -- | Low -- °F
--% Chance of Precip.
Yesterday
High -- | Low -- °F
Precip. -- in
9:12 AM 6:58 PM
Waning Crescent, 8% visible
Pressure 29.14 in
Visibility 10.0 miles
Clouds Overcast 6000 ft
Windchill 25 °F
Dew Point 26 °F
Humidity 89%
Rainfall 0.04 in
Snow Depth Not available.
UV 0 out of 12
Pollen Not available.
Air Quality Not available.
Flu Activity Sporadic
METAR PAIL 210153Z 20003KT 10SM OVC060 M02/M03 A2913 RMK AO2 SLP868 T10171033

More Conditions Fewer Conditions

Pressure 29.14 in
Visibility 10.0 miles
Clouds Overcast 6000 ft
Windchill 25 °F
Dew Point 26 °F
Humidity 89%
Rainfall 0.04 in
Snow Depth Not available.
UV 0 out of 12
Pollen Not available.
Air Quality Not available.
Flu Activity Sporadic
METAR PAIL 210153Z 20003KT 10SM OVC060 M02/M03 A2913 RMK AO2 SLP868 T10171033

More Conditions Fewer Conditions

10-Day Weather Forecast

Almanac

Astronomy

Oct. 20, 2014 Rise Set
Actual Time 9:12 AM AKDT 6:58 PM AKDT
Civil Twilight 8:30 AM AKDT 7:40 PM AKDT
Nautical Twilight 7:42 AM AKDT 8:28 PM AKDT
Astronomical Twilight 6:54 AM AKDT 9:15 PM AKDT
Moon 5:28 AM AKDT (10/20) 6:01 PM AKDT (10/20)
Length of Visible Light 11h 10m
Length of Day
9h 45m
Tomorrow will be 5m 14s shorter.
Waning Crescent, 8% of the Moon is Illuminated
Today
Waning Crescent
Oct 23
New
Oct 30
First Quarter
Nov 6
Full
Nov 14
Last Quarter

Today's Extremes

State Highs State Lows

Community

WunderPhotos

Upload Photos

1,763,572 photos uploaded!

Nearby

Snow Depth

Station Depth Elevation
Mcneil Canyon 1 in 1320 ft
Port Graham 0 in 300 ft
Cooper Lake 0 in 1200 ft
Summit Creek 4 in 1400 ft
Grouse Creek Divide 0 in 700 ft

Earthquake Activity

City Distance Mag. Time & Date
No recent earthquake activity has been reported nearby.
Minimum magnitude displayed is 2.5.

Coastal Water Temperatures

Place Temperature
No Stations Reporting

Nearby Weather Stations